首页
METAR-TAF:

METAR-TAF

机场 :

Las Cruces International Airport

拉斯克鲁塞斯, 新墨西哥州, 美国

纬度: 32-17-22N, 经度: 106-55-19W, 海拔: 1358米

当前天气观测

该预报发布于39分钟前的14:35 UTC
风速3节,风向西北
温度 24°C
湿度 15%
气压 1018 hPa
能見度: 16.1公里
天空无云

METAR: KLRU 261435Z AUTO 31003KT 10SM CLR 24/M04 A3007 RMK AO2 T02361040

时间: 09:14 (15:14 UTC)

预报

该预报发布于3小时和44分钟前的11:30 UTC
预报有效从26日的 12点(UTC)到 27日的 12点(UTC)
风速6节,风向西转西北
能見度: 10公里
天空无云
从 26日的 1700点(UTC)
风速14节,风向西,有时为23节阵风
能見度: 10公里
天空无云
从 27日的 0200点(UTC)
风速8节,风向西
能見度: 10公里
天空无云

TAF: KLRU 261130Z 2612/2712 29006KT P6SM SKC FM261700 26014G23KT P6SM SKC FM270200 28008KT P6SM SKC

超过4000个机场的气象观测和天气预报(METAR&TAF报告)。

可查询的气象台以黄色和红色小点在地图上表示。

将鼠标移到小点上方,可查看气象台名称。

然后点击查看天气观测和预报。

如需切换地图:点击带黑十字的绿色按钮放大地图;点击带横线的绿色按钮缩小地图;或者点击绿色箭头查看邻近地区的地图。


METAR-TAF: